createdAt,value
2017-10-17T00:00:06.795Z,7.40
2017-10-17T00:02:34.303Z,7.26
2017-10-17T00:05:01.826Z,7.55
2017-10-17T00:07:29.402Z,7.49
2017-10-17T00:09:57.057Z,7.47
2017-10-17T00:12:24.558Z,7.14
2017-10-17T00:14:52.107Z,7.16
2017-10-17T00:17:19.632Z,7.42
2017-10-17T00:19:47.210Z,7.47
2017-10-17T00:22:14.732Z,7.13
2017-10-17T00:24:42.246Z,6.93
2017-10-17T00:27:09.757Z,6.88
2017-10-17T00:29:37.262Z,6.98
2017-10-17T00:32:04.879Z,6.97
2017-10-17T00:34:32.395Z,6.89
2017-10-17T00:37:00.025Z,6.84
2017-10-17T00:39:27.676Z,7.16
2017-10-17T00:41:55.336Z,7.10
2017-10-17T00:44:22.996Z,6.75
2017-10-17T00:46:50.652Z,6.69
2017-10-17T00:49:18.179Z,6.56
2017-10-17T00:51:45.703Z,6.54
2017-10-17T00:54:13.206Z,6.67
2017-10-17T00:56:40.783Z,6.89
2017-10-17T00:59:08.446Z,6.84
2017-10-17T01:01:36.107Z,6.86
2017-10-17T01:04:03.895Z,6.96
2017-10-17T01:06:31.544Z,6.78
2017-10-17T01:08:59.180Z,6.75
2017-10-17T01:11:26.693Z,6.55
2017-10-17T01:13:54.335Z,6.51
2017-10-17T01:16:21.965Z,6.42
2017-10-17T01:18:49.476Z,6.36
2017-10-17T01:21:16.983Z,6.37
2017-10-17T01:23:48.347Z,6.39
2017-10-17T01:26:20.268Z,6.62
2017-10-17T01:28:47.851Z,6.50
2017-10-17T01:31:15.395Z,6.31
2017-10-17T01:33:44.701Z,6.28
2017-10-17T01:36:12.227Z,6.32
2017-10-17T01:38:45.292Z,6.38
2017-10-17T01:41:12.839Z,6.50
2017-10-17T01:43:42.228Z,6.37
2017-10-17T01:46:10.556Z,6.25
2017-10-17T01:48:38.902Z,6.00
2017-10-17T01:51:19.999Z,5.91
2017-10-17T01:53:50.396Z,5.94
2017-10-17T01:56:18.763Z,6.06
2017-10-17T01:58:46.267Z,6.10
2017-10-17T02:01:13.763Z,6.02
2017-10-17T02:03:41.423Z,6.10
2017-10-17T02:06:09.112Z,6.00
2017-10-17T02:08:36.621Z,5.97
2017-10-17T02:11:10.622Z,5.91
2017-10-17T02:13:38.226Z,5.80
2017-10-17T02:16:05.743Z,5.82
2017-10-17T02:18:38.579Z,5.78
2017-10-17T02:21:09.659Z,5.84
2017-10-17T02:23:37.160Z,5.83
2017-10-17T02:26:12.111Z,5.93
2017-10-17T02:28:49.555Z,6.02
2017-10-17T02:31:17.058Z,5.79
2017-10-17T02:34:07.215Z,5.98
2017-10-17T02:36:45.248Z,5.89
2017-10-17T02:39:12.748Z,5.79
2017-10-17T02:41:40.357Z,5.60
2017-10-17T02:44:07.862Z,5.60
2017-10-17T02:46:37.192Z,5.63
2017-10-17T02:49:05.560Z,5.54
2017-10-17T02:51:33.234Z,5.42
2017-10-17T02:54:00.931Z,5.51
2017-10-17T02:56:28.564Z,5.51
2017-10-17T02:58:56.226Z,5.49
2017-10-17T03:01:26.320Z,5.83
2017-10-17T03:03:53.940Z,5.96
2017-10-17T03:06:21.573Z,6.04
2017-10-17T03:08:49.167Z,6.21
2017-10-17T03:11:16.675Z,6.07
2017-10-17T03:13:51.817Z,5.75
2017-10-17T03:16:19.495Z,6.06
2017-10-17T03:18:47.865Z,5.75
2017-10-17T03:21:16.113Z,5.40
2017-10-17T03:23:44.422Z,5.29
2017-10-17T03:26:11.941Z,5.54
2017-10-17T03:28:40.327Z,5.69
2017-10-17T03:31:08.625Z,5.69
2017-10-17T03:33:36.135Z,5.63
2017-10-17T03:39:09.514Z,5.39
2017-10-17T03:41:37.154Z,5.51
2017-10-17T03:44:11.515Z,5.27
2017-10-17T03:46:54.708Z,5.23
2017-10-17T03:49:41.829Z,5.51
2017-10-17T03:52:12.052Z,5.36
2017-10-17T03:54:39.607Z,5.18
2017-10-17T03:57:08.045Z,5.03
2017-10-17T03:59:35.553Z,4.81
2017-10-17T04:02:03.202Z,4.79
2017-10-17T04:04:52.356Z,5.07
2017-10-17T04:07:36.784Z,5.18
2017-10-17T04:10:10.015Z,5.14
2017-10-17T04:12:37.564Z,5.39
2017-10-17T04:15:05.884Z,5.21
2017-10-17T04:17:40.187Z,4.78
2017-10-17T04:20:21.239Z,4.66
2017-10-17T04:26:03.276Z,5.04
2017-10-17T04:28:48.587Z,5.06
2017-10-17T04:31:37.896Z,5.01
2017-10-17T04:37:03.950Z,4.76
2017-10-17T04:39:31.720Z,5.07
2017-10-17T04:41:59.240Z,5.27
2017-10-17T04:47:37.447Z,4.83
2017-10-17T04:50:27.682Z,4.77
2017-10-17T04:56:27.159Z,4.58
2017-10-17T04:59:06.601Z,4.82
2017-10-17T05:01:34.115Z,4.69
2017-10-17T05:04:23.298Z,4.66
2017-10-17T05:06:50.798Z,4.60
2017-10-17T05:09:21.944Z,4.74
2017-10-17T05:11:49.460Z,4.57
2017-10-17T05:14:28.762Z,4.66
2017-10-17T05:17:00.244Z,4.68
2017-10-17T05:19:36.588Z,4.54
2017-10-17T05:22:32.544Z,4.59
2017-10-17T05:25:24.850Z,4.36
2017-10-17T05:27:59.232Z,4.42
2017-10-17T05:30:29.592Z,4.61
2017-10-17T05:33:17.119Z,4.59
2017-10-17T05:35:44.659Z,4.50
2017-10-17T05:38:12.359Z,4.25
2017-10-17T05:40:39.887Z,4.44
2017-10-17T05:43:07.409Z,4.30
2017-10-17T05:45:34.925Z,4.27
2017-10-17T05:48:03.285Z,4.30
2017-10-17T05:53:30.767Z,4.40
2017-10-17T05:55:58.294Z,4.31
2017-10-17T05:58:25.829Z,4.27
2017-10-17T06:00:53.345Z,4.20
2017-10-17T06:03:20.944Z,4.45
2017-10-17T06:05:48.453Z,4.35
2017-10-17T06:08:15.986Z,4.36
2017-10-17T06:10:43.531Z,4.39
2017-10-17T06:13:11.069Z,4.45
2017-10-17T06:15:38.607Z,4.36
2017-10-17T06:18:06.147Z,4.38
2017-10-17T06:20:33.654Z,4.68
2017-10-17T06:23:01.177Z,4.74
2017-10-17T06:25:28.700Z,4.59
2017-10-17T06:27:56.226Z,4.51
2017-10-17T06:30:23.754Z,4.50
2017-10-17T06:32:51.255Z,4.77
2017-10-17T06:35:18.792Z,4.84
2017-10-17T06:37:46.311Z,4.92
2017-10-17T06:40:13.870Z,4.96
2017-10-17T06:42:41.392Z,5.17
2017-10-17T06:45:08.899Z,5.19
2017-10-17T06:47:36.396Z,5.33
2017-10-17T06:50:03.903Z,5.29
2017-10-17T06:52:31.437Z,5.34
2017-10-17T06:54:58.960Z,5.54
2017-10-17T06:57:26.590Z,5.77
2017-10-17T06:59:54.149Z,5.95
2017-10-17T07:02:21.665Z,6.01
2017-10-17T07:04:49.175Z,6.14
2017-10-17T07:07:16.695Z,6.35
2017-10-17T07:09:44.200Z,6.45
2017-10-17T07:12:11.735Z,6.53
2017-10-17T07:14:39.270Z,6.66
2017-10-17T07:17:06.784Z,6.92
2017-10-17T07:19:34.307Z,7.03
2017-10-17T07:22:01.815Z,7.04
2017-10-17T07:24:29.339Z,7.11
2017-10-17T07:26:56.841Z,7.32
2017-10-17T07:29:24.356Z,7.56
2017-10-17T07:31:51.867Z,7.75
2017-10-17T07:34:19.405Z,7.97
2017-10-17T07:36:46.923Z,8.25
2017-10-17T07:39:14.447Z,8.75
2017-10-17T07:41:41.989Z,9.17
2017-10-17T07:44:09.508Z,9.40
2017-10-17T07:46:37.025Z,9.64
2017-10-17T07:49:04.545Z,10.15
2017-10-17T07:51:32.071Z,10.78
2017-10-17T07:53:59.606Z,11.88
2017-10-17T07:56:27.109Z,12.91
2017-10-17T07:58:54.626Z,13.91
2017-10-17T08:01:22.134Z,15.33
2017-10-17T08:03:49.641Z,18.32
2017-10-17T08:06:17.163Z,19.65
2017-10-17T08:08:44.690Z,18.86
2017-10-17T08:11:12.220Z,20.99
2017-10-17T08:13:39.746Z,23.17
2017-10-17T08:16:07.269Z,24.58
2017-10-17T08:18:34.799Z,22.79
2017-10-17T08:21:02.317Z,21.93
2017-10-17T08:23:29.835Z,22.73
2017-10-17T08:25:57.344Z,22.73
2017-10-17T08:28:24.854Z,23.72
2017-10-17T08:30:52.372Z,23.83
2017-10-17T08:33:19.897Z,23.44
2017-10-17T08:35:47.446Z,22.60
2017-10-17T08:38:14.998Z,23.55
2017-10-17T08:40:42.508Z,24.55
2017-10-17T08:43:10.055Z,25.11
2017-10-17T08:45:37.589Z,25.01
2017-10-17T08:48:05.142Z,26.10
2017-10-17T08:50:32.644Z,25.58
2017-10-17T08:53:00.159Z,24.84
2017-10-17T08:55:27.685Z,24.26
2017-10-17T08:57:55.212Z,24.88
2017-10-17T09:00:22.731Z,25.55
2017-10-17T09:02:50.248Z,26.11
2017-10-17T09:05:17.751Z,26.85
2017-10-17T09:07:45.262Z,26.95
2017-10-17T09:10:12.787Z,27.65
2017-10-17T09:12:40.299Z,26.83
2017-10-17T09:15:07.828Z,26.01
2017-10-17T09:17:35.336Z,24.56
2017-10-17T09:20:02.838Z,26.77
2017-10-17T09:22:30.384Z,27.52
2017-10-17T09:24:57.895Z,27.73
2017-10-17T09:27:25.407Z,26.59
2017-10-17T09:29:52.929Z,27.44
2017-10-17T09:32:20.467Z,29.11
2017-10-17T09:34:47.992Z,29.77
2017-10-17T09:37:15.503Z,28.65
2017-10-17T09:39:43.012Z,27.45
2017-10-17T09:42:10.547Z,26.27
2017-10-17T09:44:38.095Z,28.70
2017-10-17T09:47:05.641Z,29.08
2017-10-17T09:49:33.164Z,26.91
2017-10-17T09:52:00.694Z,28.39
2017-10-17T09:54:28.204Z,30.45
2017-10-17T09:56:55.718Z,27.93
2017-10-17T09:59:23.229Z,28.80
2017-10-17T10:01:50.779Z,29.82
2017-10-17T10:04:18.308Z,28.65
2017-10-17T10:06:45.812Z,27.88
2017-10-17T10:09:13.343Z,26.51
2017-10-17T10:11:40.973Z,27.91
2017-10-17T10:14:08.483Z,25.81
2017-10-17T10:16:35.995Z,27.93
2017-10-17T10:19:03.522Z,26.78
2017-10-17T10:21:31.020Z,29.33
2017-10-17T10:23:58.530Z,30.38
2017-10-17T10:26:26.043Z,29.85
2017-10-17T10:28:53.552Z,29.70
2017-10-17T10:31:21.080Z,30.34
2017-10-17T10:33:48.614Z,28.46
2017-10-17T10:36:16.128Z,27.40
2017-10-17T10:38:43.698Z,30.62
2017-10-17T10:41:11.231Z,30.07
2017-10-17T10:43:38.767Z,29.32
2017-10-17T10:46:06.275Z,29.00
2017-10-17T10:48:33.783Z,31.58
2017-10-17T10:51:01.310Z,31.30
2017-10-17T10:53:28.832Z,31.74
2017-10-17T10:55:56.344Z,32.07
2017-10-17T10:58:23.961Z,31.94
2017-10-17T11:00:51.517Z,32.41
2017-10-17T11:03:19.024Z,30.74
2017-10-17T11:05:46.544Z,30.90
2017-10-17T11:08:14.071Z,30.68
2017-10-17T11:10:41.587Z,33.15
2017-10-17T11:13:09.098Z,34.89
2017-10-17T11:15:36.634Z,37.67
2017-10-17T11:18:04.142Z,36.23
2017-10-17T11:20:31.654Z,36.00
2017-10-17T11:22:59.193Z,34.28
2017-10-17T11:25:26.715Z,36.20
2017-10-17T11:27:54.233Z,34.45
2017-10-17T11:30:21.749Z,33.62
2017-10-17T11:32:49.268Z,32.72
2017-10-17T11:35:16.788Z,33.51
2017-10-17T11:37:44.324Z,33.11
2017-10-17T11:40:11.955Z,33.50
2017-10-17T11:42:51.388Z,35.86
2017-10-17T11:45:18.894Z,35.74
2017-10-17T11:47:46.443Z,37.11
2017-10-17T11:50:13.942Z,37.56
2017-10-17T11:52:41.463Z,36.30
2017-10-17T11:55:08.984Z,35.27
2017-10-17T11:57:36.531Z,33.66
2017-10-17T12:00:04.103Z,33.16
2017-10-17T12:02:31.631Z,32.64
2017-10-17T12:04:59.137Z,32.06
2017-10-17T12:07:26.660Z,29.54
2017-10-17T12:09:54.204Z,29.96
2017-10-17T12:12:21.749Z,31.10
2017-10-17T12:14:49.300Z,32.15
2017-10-17T12:17:16.824Z,32.75
2017-10-17T12:19:44.357Z,33.42
2017-10-17T12:22:11.874Z,32.47
2017-10-17T12:24:39.480Z,33.34
2017-10-17T12:27:06.988Z,34.68
2017-10-17T12:29:34.507Z,33.52
2017-10-17T12:32:02.031Z,37.11
2017-10-17T12:34:29.729Z,36.85
2017-10-17T12:36:57.258Z,34.59
2017-10-17T12:39:24.812Z,37.07
2017-10-17T12:41:52.335Z,35.03
2017-10-17T12:44:19.971Z,35.66
2017-10-17T12:46:47.490Z,35.57
2017-10-17T12:49:15.008Z,37.01
2017-10-17T12:51:42.537Z,35.16
2017-10-17T12:54:10.051Z,35.40
2017-10-17T12:56:37.559Z,37.06
2017-10-17T12:59:05.424Z,34.35
2017-10-17T13:01:32.938Z,35.41
2017-10-17T13:04:00.437Z,33.40
2017-10-17T13:06:27.976Z,32.60
2017-10-17T13:08:55.500Z,31.94
2017-10-17T13:11:23.169Z,31.27
2017-10-17T13:13:50.686Z,33.14
2017-10-17T13:16:18.221Z,34.02
2017-10-17T13:18:45.862Z,33.44
2017-10-17T13:21:13.370Z,33.33
2017-10-17T13:23:40.885Z,32.18
2017-10-17T13:26:08.406Z,32.85
2017-10-17T13:28:35.913Z,31.90
2017-10-17T13:31:03.466Z,31.67
2017-10-17T13:33:30.975Z,30.91
2017-10-17T13:35:58.497Z,32.00
2017-10-17T13:38:26.007Z,30.56
2017-10-17T13:40:53.510Z,32.54
2017-10-17T13:43:21.025Z,30.13
2017-10-17T13:45:48.558Z,30.09
2017-10-17T13:48:16.067Z,32.86
2017-10-17T13:50:43.579Z,33.14
2017-10-17T13:53:11.090Z,31.79
2017-10-17T13:55:38.606Z,30.86
2017-10-17T13:58:06.128Z,31.46
2017-10-17T14:00:33.672Z,32.28
2017-10-17T14:03:01.207Z,33.86
2017-10-17T14:05:28.735Z,33.62
2017-10-17T14:07:56.252Z,32.90
2017-10-17T14:10:23.752Z,32.43
2017-10-17T14:12:51.263Z,32.46
2017-10-17T14:15:18.783Z,30.68
2017-10-17T14:17:46.304Z,31.43
2017-10-17T14:20:13.809Z,31.00
2017-10-17T14:22:41.343Z,30.47
2017-10-17T14:25:08.856Z,29.98
2017-10-17T14:27:36.371Z,28.86
2017-10-17T14:30:03.904Z,28.09
2017-10-17T14:32:31.423Z,27.54
2017-10-17T14:34:58.931Z,26.28
2017-10-17T14:37:26.429Z,26.23
2017-10-17T14:39:53.966Z,25.75
2017-10-17T14:42:21.492Z,25.56
2017-10-17T14:44:49.014Z,25.21
2017-10-17T14:47:16.541Z,24.95
2017-10-17T14:49:44.229Z,24.49
2017-10-17T14:52:11.784Z,23.66
2017-10-17T14:54:39.335Z,23.69
2017-10-17T14:57:06.900Z,23.30
2017-10-17T14:59:34.455Z,22.71
2017-10-17T15:02:01.980Z,22.31
2017-10-17T15:04:29.496Z,21.67
2017-10-17T15:06:57.022Z,20.90
2017-10-17T15:09:24.537Z,20.83
2017-10-17T15:11:52.056Z,20.40
2017-10-17T15:14:19.612Z,20.20
2017-10-17T15:16:47.160Z,19.85
2017-10-17T15:19:14.680Z,19.77
2017-10-17T15:21:42.205Z,19.58
2017-10-17T15:24:09.711Z,19.39
2017-10-17T15:26:37.228Z,19.47
2017-10-17T15:29:04.753Z,19.74
2017-10-17T15:31:32.266Z,19.38
2017-10-17T15:33:59.785Z,19.01
2017-10-17T15:36:27.329Z,18.62
2017-10-17T15:38:54.939Z,18.59
2017-10-17T15:41:22.467Z,18.62
2017-10-17T15:43:50.003Z,18.58
2017-10-17T15:46:17.575Z,18.83
2017-10-17T15:48:45.107Z,18.51
2017-10-17T15:51:12.635Z,18.37
2017-10-17T15:53:40.154Z,17.98
2017-10-17T15:56:07.685Z,18.01
2017-10-17T15:58:35.280Z,18.04
2017-10-17T16:01:02.797Z,17.63
2017-10-17T16:03:30.320Z,16.95
2017-10-17T16:05:57.833Z,16.91
2017-10-17T16:08:25.364Z,16.85
2017-10-17T16:10:52.880Z,16.87
2017-10-17T16:13:20.406Z,16.67
2017-10-17T16:15:48.024Z,16.41
2017-10-17T16:18:15.554Z,16.52
2017-10-17T16:20:43.077Z,16.16
2017-10-17T16:23:10.608Z,15.94
2017-10-17T16:25:38.133Z,15.57
2017-10-17T16:28:05.663Z,15.33
2017-10-17T16:30:33.191Z,15.38
2017-10-17T16:33:00.745Z,14.84
2017-10-17T16:35:28.267Z,14.97
2017-10-17T16:37:55.780Z,15.27
2017-10-17T16:40:23.358Z,15.01
2017-10-17T16:42:50.883Z,14.28
2017-10-17T16:45:18.488Z,14.65
2017-10-17T16:47:46.020Z,14.24
2017-10-17T16:50:13.600Z,14.43
2017-10-17T16:52:41.145Z,13.91
2017-10-17T16:55:08.685Z,13.67
2017-10-17T16:57:36.246Z,13.65
2017-10-17T17:00:03.803Z,13.60
2017-10-17T17:02:31.346Z,13.24
2017-10-17T17:04:58.918Z,13.20
2017-10-17T17:07:26.451Z,13.24
2017-10-17T17:09:53.968Z,13.39
2017-10-17T17:12:21.493Z,13.56
2017-10-17T17:14:49.031Z,13.82
2017-10-17T17:17:16.578Z,13.32
2017-10-17T17:19:44.082Z,13.33
2017-10-17T17:22:11.594Z,13.27
2017-10-17T17:24:39.135Z,13.09
2017-10-17T17:27:06.667Z,12.94
2017-10-17T17:29:34.199Z,12.92
2017-10-17T17:32:01.729Z,12.82
2017-10-17T17:34:29.245Z,12.70
2017-10-17T17:36:56.770Z,13.14
2017-10-17T17:39:24.315Z,13.18
2017-10-17T17:41:51.833Z,12.46
2017-10-17T17:44:19.374Z,12.10
2017-10-17T17:46:46.948Z,12.22
2017-10-17T17:49:14.496Z,12.59
2017-10-17T17:51:42.012Z,12.51
2017-10-17T17:54:09.562Z,12.41
2017-10-17T17:56:37.138Z,12.31
2017-10-17T17:59:04.779Z,12.33
2017-10-17T18:01:32.300Z,12.38
2017-10-17T18:03:59.832Z,12.31
2017-10-17T18:06:27.367Z,12.28
2017-10-17T18:08:54.891Z,11.84
2017-10-17T18:11:22.433Z,11.47
2017-10-17T18:13:49.979Z,11.28
2017-10-17T18:16:17.598Z,11.60
2017-10-17T18:18:45.153Z,11.88
2017-10-17T18:21:12.688Z,11.79
2017-10-17T18:23:40.214Z,11.65
2017-10-17T18:26:07.824Z,11.63
2017-10-17T18:28:35.356Z,11.89
2017-10-17T18:31:02.905Z,11.60
2017-10-17T18:33:30.425Z,11.71
2017-10-17T18:36:00.015Z,11.51
2017-10-17T18:38:27.671Z,11.69
2017-10-17T18:40:55.247Z,11.42
2017-10-17T18:43:22.770Z,11.45
2017-10-17T18:45:50.288Z,11.52
2017-10-17T18:48:17.807Z,11.33
2017-10-17T18:50:45.352Z,11.23
2017-10-17T18:53:12.880Z,11.04
2017-10-17T18:55:40.442Z,11.07
2017-10-17T18:58:07.964Z,11.11
2017-10-17T19:00:36.707Z,11.07
2017-10-17T19:03:04.265Z,10.90
2017-10-17T19:05:31.818Z,11.16
2017-10-17T19:07:59.347Z,11.02
2017-10-17T19:10:26.874Z,10.93
2017-10-17T19:12:54.433Z,10.92
2017-10-17T19:15:21.985Z,11.08
2017-10-17T19:17:49.513Z,10.95
2017-10-17T19:20:17.113Z,11.01
2017-10-17T19:22:44.677Z,10.87
2017-10-17T19:25:12.219Z,10.54
2017-10-17T19:27:39.913Z,10.19
2017-10-17T19:30:07.466Z,10.35
2017-10-17T19:32:35.023Z,10.46
2017-10-17T19:35:02.582Z,10.49
2017-10-17T19:37:30.125Z,10.38
2017-10-17T19:39:57.674Z,9.98
2017-10-17T19:42:25.233Z,9.92
2017-10-17T19:44:52.784Z,10.11
2017-10-17T19:47:20.389Z,10.08
2017-10-17T19:49:47.978Z,9.94
2017-10-17T19:52:15.495Z,9.90
2017-10-17T19:54:43.002Z,9.90
2017-10-17T19:57:10.573Z,9.98
2017-10-17T19:59:38.084Z,9.96
2017-10-17T20:02:05.599Z,10.10
2017-10-17T20:04:33.143Z,10.30
2017-10-17T20:07:00.668Z,10.01
2017-10-17T20:09:28.200Z,10.31
2017-10-17T20:11:55.736Z,10.20
2017-10-17T20:14:23.239Z,9.98
2017-10-17T20:16:50.776Z,9.59
2017-10-17T20:19:18.303Z,9.82
2017-10-17T20:21:45.856Z,10.04
2017-10-17T20:24:13.411Z,9.71
2017-10-17T20:26:40.927Z,9.92
2017-10-17T20:29:08.519Z,9.54
2017-10-17T20:31:36.028Z,9.32
2017-10-17T20:34:03.531Z,9.16
2017-10-17T20:36:31.059Z,9.11
2017-10-17T20:38:58.571Z,9.42
2017-10-17T20:41:26.109Z,9.49
2017-10-17T20:43:53.672Z,9.75
2017-10-17T20:46:21.211Z,9.56
2017-10-17T20:48:48.772Z,9.48
2017-10-17T20:51:16.272Z,9.28
2017-10-17T20:53:43.795Z,9.25
2017-10-17T20:56:11.367Z,8.98
2017-10-17T20:58:38.920Z,8.81
2017-10-17T21:01:06.458Z,8.61
2017-10-17T21:03:34.095Z,8.84
2017-10-17T21:06:01.666Z,9.20
2017-10-17T21:08:29.222Z,9.32
2017-10-17T21:10:56.798Z,9.25
2017-10-17T21:13:24.334Z,9.55
2017-10-17T21:15:52.001Z,9.27
2017-10-17T21:18:19.558Z,8.87
2017-10-17T21:20:47.105Z,8.55
2017-10-17T21:23:14.647Z,8.37
2017-10-17T21:25:42.181Z,8.40
2017-10-17T21:28:09.731Z,8.46
2017-10-17T21:30:37.296Z,8.79
2017-10-17T21:33:04.816Z,8.89
2017-10-17T21:35:32.464Z,9.01
2017-10-17T21:37:59.996Z,8.84
2017-10-17T21:40:27.507Z,8.60
2017-10-17T21:42:55.034Z,8.49
2017-10-17T21:45:22.704Z,8.44
2017-10-17T21:47:50.224Z,8.53
2017-10-17T21:50:17.770Z,8.72
2017-10-17T21:52:45.299Z,8.70
2017-10-17T21:55:12.819Z,8.71
2017-10-17T21:57:40.331Z,8.55
2017-10-17T22:00:07.868Z,8.27
2017-10-17T22:03:03.627Z,8.25
2017-10-17T22:05:39.049Z,8.24
2017-10-17T22:08:06.876Z,8.10
2017-10-17T22:10:34.398Z,8.09
2017-10-17T22:13:01.922Z,8.31
2017-10-17T22:15:29.454Z,8.57
2017-10-17T22:17:56.984Z,8.81
2017-10-17T22:20:24.491Z,8.56
2017-10-17T22:22:52.011Z,8.39
2017-10-17T22:25:19.525Z,8.69
2017-10-17T22:27:47.033Z,8.75
2017-10-17T22:30:14.557Z,8.43
2017-10-17T22:32:42.160Z,8.39
2017-10-17T22:35:09.728Z,8.22
2017-10-17T22:37:37.247Z,8.23
2017-10-17T22:40:04.766Z,8.13
2017-10-17T22:42:32.287Z,8.30
2017-10-17T22:44:59.808Z,8.28
2017-10-17T22:47:27.313Z,8.28
2017-10-17T22:49:54.815Z,8.23
2017-10-17T22:52:22.328Z,8.30
2017-10-17T22:54:49.853Z,8.39
2017-10-17T22:57:17.347Z,8.58
2017-10-17T22:59:44.858Z,8.50
2017-10-17T23:02:12.377Z,8.26
2017-10-17T23:04:39.893Z,7.96
2017-10-17T23:07:07.393Z,7.91
2017-10-17T23:09:34.900Z,7.94
2017-10-17T23:12:02.411Z,7.99
2017-10-17T23:14:29.922Z,7.82
2017-10-17T23:17:09.487Z,7.73
2017-10-17T23:19:48.949Z,7.81
2017-10-17T23:22:16.457Z,7.77
2017-10-17T23:24:43.979Z,7.76
2017-10-17T23:27:11.506Z,7.86
2017-10-17T23:29:39.034Z,7.87
2017-10-17T23:32:06.552Z,8.06
2017-10-17T23:34:34.066Z,7.74
2017-10-17T23:37:01.597Z,7.73
2017-10-17T23:39:29.168Z,7.77
2017-10-17T23:41:56.682Z,7.70
2017-10-17T23:44:24.199Z,7.68
2017-10-17T23:46:51.709Z,7.73
2017-10-17T23:49:19.221Z,7.75
2017-10-17T23:51:46.725Z,7.74
2017-10-17T23:54:14.254Z,7.69
2017-10-17T23:56:41.765Z,7.68
2017-10-17T23:59:09.274Z,7.61
